Time;durP1;ratioP1;P1;durP2;ratioP2;P2;SDS_P1;SDS_P2;PMS_P1;PMS_P2;Temp;Humidity;BMP_temperature;BMP_pressure;BME280_temperature;BME280_humidity;BME280_pressure;Samples;Min_cycle;Max_cycle;Signal;HPM_P1;HPM_P2
2023/05/02 00:01:30;;;;;;;34.07;17.97;;;;;8.20;96291.00;;;;8278993;28;20210;-67
2023/05/02 00:05:39;;;;;;;39.97;18.40;;;;;8.20;96294.00;;;;8264944;28;20684;-64
2023/05/02 00:09:45;;;;;;;35.23;17.17;;;;;8.20;96293.00;;;;8287105;28;20852;-64
2023/05/02 00:13:51;;;;;;;31.17;16.30;;;;;8.10;96292.00;;;;8279808;28;20284;-63
2023/05/02 00:17:55;;;;;;;29.80;16.58;;;;;8.10;96290.00;;;;8284815;28;20256;-64
2023/05/02 00:21:58;;;;;;;35.10;16.83;;;;;8.00;96292.00;;;;8280808;28;20628;-67
2023/05/02 00:26:03;;;;;;;30.07;15.30;;;;;7.90;96291.00;;;;8263531;28;20202;-70
2023/05/02 00:30:08;;;;;;;191.90;22.07;;;;;7.90;96289.00;;;;8282261;28;20884;-66
2023/05/02 00:34:11;;;;;;;206.43;20.47;;;;;7.80;96288.00;;;;8271820;28;20320;-67
2023/05/02 00:38:15;;;;;;;106.33;19.37;;;;;7.80;96289.00;;;;8274451;28;20208;-66
2023/05/02 00:42:20;;;;;;;281.83;24.13;;;;;7.70;96288.00;;;;8274402;28;20221;-66
2023/05/02 00:46:23;;;;;;;33.23;16.23;;;;;7.70;96292.00;;;;8271588;28;20285;-64
2023/05/02 00:50:48;;;;;;;112.23;17.03;;;;;7.70;96291.00;;;;8276030;28;20214;-68
2023/05/02 00:54:52;;;;;;;109.60;18.83;;;;;7.50;96293.00;;;;8281733;28;20409;-69
2023/05/02 00:58:58;;;;;;;87.13;20.23;;;;;7.50;96295.00;;;;8276569;28;20198;-64
2023/05/02 01:03:12;;;;;;;176.53;24.23;;;;;7.40;96293.00;;;;8271006;28;20203;-66
2023/05/02 01:07:28;;;;;;;579.47;34.90;;;;;7.40;96306.00;;;;8285009;28;20198;-62
2023/05/02 01:11:44;;;;;;;138.20;20.47;;;;;7.30;96302.00;;;;8278514;28;20223;-64
2023/05/02 01:15:53;;;;;;;78.70;19.57;;;;;7.20;96307.00;;;;8272691;28;20206;-63
2023/05/02 01:20:03;;;;;;;62.97;18.73;;;;;7.20;96312.00;;;;8272368;28;20234;-66
2023/05/02 01:24:25;;;;;;;40.53;17.63;;;;;7.20;96321.00;;;;8277834;28;20195;-70
2023/05/02 01:28:36;;;;;;;737.43;47.60;;;;;7.20;96308.00;;;;8279124;28;20320;-65
2023/05/02 01:32:44;;;;;;;57.37;16.10;;;;;7.20;96306.00;;;;8280206;28;20241;-65
2023/05/02 01:37:04;;;;;;;641.20;47.23;;;;;7.10;96310.00;;;;8282842;28;20198;-64
2023/05/02 01:41:09;;;;;;;690.60;50.23;;;;;7.10;96316.00;;;;8270794;28;20206;-64
2023/05/02 01:45:13;;;;;;;643.93;43.93;;;;;7.00;96317.00;;;;8280514;28;20210;-67
2023/05/02 01:49:22;;;;;;;518.80;36.97;;;;;7.00;96324.00;;;;8281447;28;20820;-69
2023/05/02 01:53:30;;;;;;;460.53;33.60;;;;;6.90;96329.00;;;;8275014;28;20287;-70
2023/05/02 01:57:36;;;;;;;551.67;37.33;;;;;6.90;96325.00;;;;8277938;28;20237;-66
2023/05/02 02:01:42;;;;;;;444.43;34.17;;;;;6.80;96326.00;;;;8272715;28;20256;-67
2023/05/02 02:05:55;;;;;;;394.83;33.73;;;;;6.70;96332.00;;;;8272909;28;20683;-66
2023/05/02 02:10:03;;;;;;;715.17;49.33;;;;;6.80;96344.00;;;;8272009;28;20221;-69
2023/05/02 02:14:13;;;;;;;222.37;25.73;;;;;6.80;96346.00;;;;8277246;28;20218;-67
2023/05/02 02:18:21;;;;;;;595.57;41.97;;;;;6.90;96345.00;;;;8271887;28;20206;-66
2023/05/02 02:22:32;;;;;;;506.57;37.90;;;;;6.90;96342.00;;;;8271963;28;20209;-69
2023/05/02 02:26:38;;;;;;;503.00;37.73;;;;;6.90;96331.00;;;;8276525;28;20214;-65
2023/05/02 02:30:41;;;;;;;520.73;39.00;;;;;6.80;96340.00;;;;8270796;28;20209;-67
2023/05/02 02:34:46;;;;;;;526.77;40.03;;;;;6.80;96338.00;;;;8273338;28;20260;-67
2023/05/02 02:38:59;;;;;;;339.90;32.00;;;;;6.80;96342.00;;;;8279575;28;20203;-67
2023/05/02 02:43:17;;;;;;;62.00;20.43;;;;;6.80;96340.00;;;;8274519;28;20261;-65
2023/05/02 02:47:30;;;;;;;67.70;21.13;;;;;6.70;96344.00;;;;8268028;28;20198;-67
2023/05/02 02:51:44;;;;;;;52.90;19.93;;;;;6.70;96342.00;;;;8273442;28;21071;-68
2023/05/02 02:55:57;;;;;;;43.80;18.77;;;;;6.70;96351.00;;;;8275706;28;20240;-65
2023/05/02 03:00:09;;;;;;;37.00;15.93;;;;;6.70;96349.00;;;;8274295;28;20222;-66
2023/05/02 03:04:16;;;;;;;106.80;23.13;;;;;6.70;96356.00;;;;8277730;22;20288;-66
2023/05/02 03:08:22;;;;;;;46.13;18.33;;;;;6.80;96358.00;;;;8251428;28;20310;-70
2023/05/02 03:12:26;;;;;;;43.03;17.47;;;;;6.70;96357.00;;;;8255144;28;20734;-66
2023/05/02 03:16:36;;;;;;;76.67;18.93;;;;;6.70;96357.00;;;;8257860;28;20199;-67
2023/05/02 03:20:42;;;;;;;104.70;19.80;;;;;6.70;96352.00;;;;8256100;28;20229;-66
2023/05/02 03:24:45;;;;;;;336.67;26.43;;;;;6.60;96351.00;;;;8257855;28;20909;-67
2023/05/02 03:28:50;;;;;;;38.47;16.43;;;;;6.60;96363.00;;;;8257560;28;20244;-67
2023/05/02 03:32:55;;;;;;;35.63;15.93;;;;;6.60;96363.00;;;;8257680;28;20289;-68
2023/05/02 03:37:00;;;;;;;41.43;16.87;;;;;6.50;96358.00;;;;8258322;28;20207;-67
2023/05/02 03:41:04;;;;;;;43.00;16.13;;;;;6.50;96357.00;;;;8261581;28;20225;-69
2023/05/02 03:45:10;;;;;;;49.37;15.50;;;;;6.40;96359.00;;;;8253042;28;20199;-68
2023/05/02 03:49:13;;;;;;;37.10;15.93;;;;;6.40;96364.00;;;;8235435;28;20203;-67
2023/05/02 03:53:21;;;;;;;35.23;15.73;;;;;6.40;96364.00;;;;8239942;28;20276;-70
2023/05/02 03:57:25;;;;;;;35.90;14.70;;;;;6.40;96373.00;;;;8229985;28;20202;-69
2023/05/02 04:01:30;;;;;;;36.50;15.23;;;;;6.40;96376.00;;;;8225853;28;20210;-71
2023/05/02 04:05:33;;;;;;;40.87;16.30;;;;;6.40;96380.00;;;;8255560;28;20199;-66
2023/05/02 04:09:36;;;;;;;36.30;15.67;;;;;6.40;96386.00;;;;8265470;28;20228;-66
2023/05/02 04:13:39;;;;;;;34.10;16.00;;;;;6.50;96387.00;;;;8258818;28;20256;-68
2023/05/02 04:17:45;;;;;;;34.03;14.50;;;;;6.50;96384.00;;;;8256399;28;20209;-67
2023/05/02 04:21:50;;;;;;;27.57;14.57;;;;;6.60;96391.00;;;;8246801;28;20261;-67
2023/05/02 04:25:56;;;;;;;32.63;14.77;;;;;6.70;96403.00;;;;8249027;28;20203;-64
2023/05/02 04:30:02;;;;;;;28.90;14.63;;;;;6.80;96398.00;;;;8249450;28;20214;-67
2023/05/02 04:34:09;;;;;;;28.53;14.60;;;;;6.90;96401.00;;;;8257089;28;20230;-67
2023/05/02 04:38:12;;;;;;;30.60;14.47;;;;;7.00;96417.00;;;;8252563;28;20191;-69
2023/05/02 04:42:15;;;;;;;36.33;14.83;;;;;7.10;96416.00;;;;8249188;28;20274;-70
2023/05/02 04:46:19;;;;;;;34.73;16.47;;;;;7.20;96425.00;;;;8256763;28;20276;-70
2023/05/02 04:50:23;;;;;;;40.63;16.10;;;;;7.30;96429.00;;;;8259636;28;21031;-68
2023/05/02 04:54:26;;;;;;;34.90;15.87;;;;;7.40;96437.00;;;;8252646;28;20226;-68
2023/05/02 04:58:33;;;;;;;36.60;16.63;;;;;7.60;96445.00;;;;8251771;28;20253;-66
2023/05/02 05:02:37;;;;;;;40.40;17.50;;;;;7.80;96456.00;;;;8244214;28;20227;-67
2023/05/02 05:06:46;;;;;;;37.57;17.43;;;;;7.90;96456.00;;;;8263471;28;20574;-67
2023/05/02 05:10:51;;;;;;;40.03;18.23;;;;;8.00;96467.00;;;;8262102;28;20314;-66
2023/05/02 05:14:54;;;;;;;48.97;20.30;;;;;8.20;96462.00;;;;8262335;28;20277;-68
2023/05/02 05:18:57;;;;;;;45.93;19.23;;;;;8.50;96462.00;;;;8262676;28;20249;-69
2023/05/02 05:23:02;;;;;;;41.83;19.20;;;;;8.70;96472.00;;;;8265817;28;20607;-70
2023/05/02 05:27:06;;;;;;;45.50;19.43;;;;;8.90;96470.00;;;;8260920;28;20190;-70
2023/05/02 05:31:10;;;;;;;50.70;20.87;;;;;9.10;96479.00;;;;8251367;28;20537;-72
2023/05/02 05:35:16;;;;;;;47.47;20.00;;;;;9.40;96476.00;;;;8257345;28;20676;-70
2023/05/02 05:39:24;;;;;;;44.40;20.07;;;;;9.50;96476.00;;;;8258462;28;20254;-71
2023/05/02 05:43:30;;;;;;;43.70;19.83;;;;;9.80;96488.00;;;;8259629;28;20461;-72
2023/05/02 05:47:39;;;;;;;40.57;19.07;;;;;9.90;96485.00;;;;8263270;28;20202;-72
2023/05/02 05:51:43;;;;;;;35.88;17.73;;;;;10.10;96491.00;;;;8260262;28;20289;-72
2023/05/02 05:55:47;;;;;;;40.67;17.77;;;;;10.20;96492.00;;;;8257178;28;20600;-71
2023/05/02 05:59:52;;;;;;;43.73;19.17;;;;;10.30;96499.00;;;;8249540;28;20904;-70
2023/05/02 06:03:55;;;;;;;39.75;18.77;;;;;10.40;96500.00;;;;8255251;28;20239;-72
2023/05/02 06:07:59;;;;;;;45.38;17.52;;;;;10.40;96516.00;;;;8268696;28;21103;-69
2023/05/02 06:12:04;;;;;;;39.95;17.17;;;;;10.50;96516.00;;;;8256450;28;20200;-69
2023/05/02 06:16:07;;;;;;;33.70;16.92;;;;;10.60;96518.00;;;;8262222;28;20233;-69
2023/05/02 06:20:15;;;;;;;36.08;17.10;;;;;10.70;96517.00;;;;8263452;28;20868;-70
2023/05/02 06:24:20;;;;;;;32.67;16.50;;;;;10.80;96516.00;;;;8245870;28;20662;-70
2023/05/02 06:28:25;;;;;;;34.53;16.77;;;;;11.10;96524.00;;;;8259536;28;20226;-70
2023/05/02 06:32:33;;;;;;;38.03;17.40;;;;;11.30;96517.00;;;;8259866;28;20647;-69
2023/05/02 06:36:40;;;;;;;34.70;17.15;;;;;11.60;96533.00;;;;8257017;28;20289;-68
2023/05/02 06:40:46;;;;;;;28.52;16.20;;;;;11.80;96533.00;;;;8258114;28;20296;-69
2023/05/02 06:44:52;;;;;;;27.38;15.93;;;;;12.10;96532.00;;;;8253287;28;20636;-68
2023/05/02 06:48:56;;;;;;;27.85;15.75;;;;;12.30;96551.00;;;;8256909;28;20217;-69
2023/05/02 06:53:01;;;;;;;29.83;16.55;;;;;12.50;96542.00;;;;8254501;28;20839;-67
2023/05/02 06:57:05;;;;;;;23.90;14.70;;;;;12.60;96552.00;;;;8252487;28;20229;-68
2023/05/02 07:01:15;;;;;;;26.50;15.57;;;;;12.90;96558.00;;;;8255619;28;20190;-68
2023/05/02 07:05:19;;;;;;;25.65;15.55;;;;;13.10;96554.00;;;;8253512;28;20213;-68
2023/05/02 07:09:27;;;;;;;23.38;16.05;;;;;13.50;96558.00;;;;8258854;28;20764;-69
2023/05/02 07:13:30;;;;;;;23.63;14.63;;;;;14.10;96575.00;;;;8257012;28;20753;-68
2023/05/02 07:17:37;;;;;;;25.00;13.85;;;;;14.50;96579.00;;;;8261479;28;20830;-67
2023/05/02 07:21:40;;;;;;;21.58;14.18;;;;;14.90;96580.00;;;;8260747;28;20640;-69
2023/05/02 07:25:47;;;;;;;19.85;12.80;;;;;15.30;96588.00;;;;8263547;28;20199;-68
2023/05/02 07:29:50;;;;;;;20.98;13.20;;;;;15.30;96589.00;;;;8262984;28;20203;-68
2023/05/02 07:33:58;;;;;;;20.50;12.98;;;;;15.50;96591.00;;;;8264396;28;20210;-68
2023/05/02 07:38:04;;;;;;;16.98;12.27;;;;;15.90;96591.00;;;;8264678;28;20328;-68
2023/05/02 07:42:07;;;;;;;17.52;12.90;;;;;16.20;96604.00;;;;8261431;28;20272;-68
2023/05/02 07:46:11;;;;;;;19.88;12.85;;;;;16.40;96598.00;;;;8252994;28;20191;-68
2023/05/02 07:50:20;;;;;;;18.35;11.98;;;;;16.50;96600.00;;;;8257755;28;20297;-68
2023/05/02 07:54:25;;;;;;;16.20;12.07;;;;;16.60;96609.00;;;;8262265;28;20341;-68
2023/05/02 07:58:32;;;;;;;18.98;11.80;;;;;16.70;96609.00;;;;8257260;28;20203;-69
2023/05/02 08:02:36;;;;;;;14.77;11.25;;;;;16.70;96616.00;;;;8256638;28;20234;-69
2023/05/02 08:06:44;;;;;;;18.08;12.38;;;;;16.70;96622.00;;;;8265265;28;20194;-69
2023/05/02 08:10:50;;;;;;;14.55;11.57;;;;;16.60;96628.00;;;;8265985;28;20631;-68
2023/05/02 08:14:53;;;;;;;14.02;10.80;;;;;16.70;96631.00;;;;8269830;28;20322;-68
2023/05/02 08:18:57;;;;;;;16.23;10.75;;;;;16.60;96637.00;;;;8259190;28;20199;-68
2023/05/02 08:23:02;;;;;;;15.60;11.10;;;;;16.60;96638.00;;;;8264858;28;20233;-69
2023/05/02 08:27:09;;;;;;;14.95;10.43;;;;;16.70;96646.00;;;;8270367;28;20840;-68
2023/05/02 08:31:15;;;;;;;12.77;10.05;;;;;16.80;96646.00;;;;8261920;28;20258;-67
2023/05/02 08:35:18;;;;;;;13.30;9.68;;;;;17.00;96656.00;;;;8257601;28;20214;-68
2023/05/02 08:39:23;;;;;;;12.48;9.77;;;;;17.20;96658.00;;;;8256217;28;20210;-68
2023/05/02 08:43:26;;;;;;;11.95;9.43;;;;;17.50;96653.00;;;;8255879;28;20282;-68
2023/05/02 08:47:33;;;;;;;13.98;9.57;;;;;17.70;96661.00;;;;8252519;28;20203;-72
2023/05/02 08:51:37;;;;;;;11.93;8.77;;;;;17.90;96660.00;;;;8258819;28;20289;-69
2023/05/02 08:55:45;;;;;;;13.18;8.95;;;;;18.20;96666.00;;;;8262419;28;20211;-69
2023/05/02 08:59:48;;;;;;;12.18;8.48;;;;;18.30;96669.00;;;;8256113;28;20290;-69
2023/05/02 09:03:58;;;;;;;11.18;8.65;;;;;18.10;96678.00;;;;8256580;28;20242;-69
2023/05/02 09:08:01;;;;;;;13.98;8.73;;;;;17.60;96689.00;;;;8263023;28;20226;-69
2023/05/02 09:12:06;;;;;;;10.13;8.93;;;;;17.30;96692.00;;;;8261726;28;20760;-69
2023/05/02 09:16:13;;;;;;;14.45;10.50;;;;;16.90;96695.00;;;;8258145;28;20234;-71
2023/05/02 09:20:19;;;;;;;13.35;10.10;;;;;16.70;96708.00;;;;8255742;28;20293;-70
2023/05/02 09:24:23;;;;;;;14.63;10.60;;;;;16.50;96707.00;;;;8252449;28;20976;-68
2023/05/02 09:28:41;;;;;;;24.98;11.00;;;;;16.50;96708.00;;;;8256383;28;20293;-69
2023/05/02 09:32:50;;;;;;;12.68;10.52;;;;;16.60;96710.00;;;;8255264;28;20289;-69
2023/05/02 09:36:53;;;;;;;14.75;9.82;;;;;16.70;96718.00;;;;8254076;28;20230;-68
2023/05/02 09:41:02;;;;;;;14.80;10.02;;;;;17.10;96715.00;;;;8256203;28;20720;-68
2023/05/02 09:45:08;;;;;;;13.13;10.30;;;;;17.20;96718.00;;;;8258620;28;20202;-68
2023/05/02 09:49:11;;;;;;;13.50;9.80;;;;;17.70;96712.00;;;;8269068;28;20202;-68
2023/05/02 09:53:17;;;;;;;11.40;8.70;;;;;18.60;96724.00;;;;8268335;28;20262;-69
2023/05/02 09:57:39;;;;;;;11.70;8.73;;;;;19.40;96720.00;;;;8255054;28;20639;-70
2023/05/02 10:01:43;;;;;;;11.95;8.25;;;;;20.30;96730.00;;;;8257559;28;20226;-69
2023/05/02 10:05:52;;;;;;;8.85;7.25;;;;;20.40;96724.00;;;;8251317;28;20200;-71
2023/05/02 10:09:59;;;;;;;10.15;8.10;;;;;20.40;96731.00;;;;8257039;28;20229;-68
2023/05/02 10:14:07;;;;;;;10.07;7.47;;;;;20.20;96733.00;;;;8262210;28;20250;-69
2023/05/02 10:18:18;;;;;;;9.90;7.55;;;;;19.60;96731.00;;;;8255247;28;20218;-68
2023/05/02 10:22:23;;;;;;;11.23;7.65;;;;;19.70;96723.00;;;;8255570;28;20580;-69
2023/05/02 10:26:28;;;;;;;8.98;7.35;;;;;19.90;96729.00;;;;8252661;28;20640;-69
2023/05/02 10:30:35;;;;;;;11.27;7.55;;;;;20.20;96732.00;;;;8253516;28;20206;-69
2023/05/02 10:34:41;;;;;;;11.05;6.68;;;;;20.20;96731.00;;;;8257975;28;20709;-70
2023/05/02 10:38:50;;;;;;;9.73;6.63;;;;;20.20;96727.00;;;;8255364;28;20850;-70
2023/05/02 10:42:54;;;;;;;10.25;6.63;;;;;20.50;96718.00;;;;8253457;28;20705;-69
2023/05/02 10:46:57;;;;;;;8.20;7.25;;;;;20.70;96724.00;;;;8256940;28;20249;-69
2023/05/02 10:51:02;;;;;;;9.35;6.90;;;;;20.70;96724.00;;;;8258789;28;20198;-70
2023/05/02 10:55:20;;;;;;;9.10;6.18;;;;;20.90;96715.00;;;;8256542;28;20259;-69
2023/05/02 10:59:34;;;;;;;6.78;6.07;;;;;21.40;96727.00;;;;8261968;28;20210;-70
2023/05/02 11:03:57;;;;;;;7.45;6.10;;;;;22.60;96719.00;;;;8249802;28;20627;-70
2023/05/02 11:08:32;;;;;;;11.43;6.13;;;;;23.00;96725.00;;;;8251996;28;20206;-69
2023/05/02 11:12:47;;;;;;;7.97;6.45;;;;;23.30;96719.00;;;;8253938;28;20726;-70
2023/05/02 11:17:11;;;;;;;8.93;6.78;;;;;22.80;96722.00;;;;8261290;28;20258;-68
2023/05/02 11:21:31;;;;;;;13.63;7.53;;;;;23.00;96722.00;;;;8240219;28;20245;-69
2023/05/02 11:25:50;;;;;;;10.88;6.93;;;;;23.30;96726.00;;;;8255242;28;20238;-69
2023/05/02 11:29:54;;;;;;;7.97;6.32;;;;;23.40;96718.00;;;;8251740;28;20633;-69
2023/05/02 11:33:57;;;;;;;8.25;6.65;;;;;23.40;96710.00;;;;8258640;28;20207;-70
2023/05/02 11:38:03;;;;;;;6.97;6.22;;;;;23.80;96713.00;;;;8256076;28;20222;-69
2023/05/02 11:42:08;;;;;;;13.23;6.65;;;;;23.40;96706.00;;;;8266439;28;20637;-69
2023/05/02 11:46:13;;;;;;;8.40;6.43;;;;;22.80;96707.00;;;;8257296;28;20203;-71
2023/05/02 11:50:18;;;;;;;7.97;5.57;;;;;23.20;96698.00;;;;8256704;28;20202;-70
2023/05/02 11:54:21;;;;;;;8.88;6.50;;;;;22.40;96707.00;;;;8254996;28;20249;-70
2023/05/02 11:58:28;;;;;;;7.40;6.28;;;;;22.10;96714.00;;;;8250927;28;20230;-69
2023/05/02 12:02:39;;;;;;;10.73;5.97;;;;;21.90;96705.00;;;;8256694;28;20226;-69
2023/05/02 12:06:55;;;;;;;6.03;5.43;;;;;22.10;96711.00;;;;8254422;28;20207;-70
2023/05/02 12:10:58;;;;;;;9.15;6.05;;;;;22.60;96707.00;;;;8257876;28;20649;-68
2023/05/02 12:15:06;;;;;;;6.88;5.18;;;;;22.70;96708.00;;;;8261467;28;20198;-70
2023/05/02 12:19:16;;;;;;;8.73;5.68;;;;;22.50;96710.00;;;;8260528;28;20257;-70
2023/05/02 12:23:20;;;;;;;8.50;4.80;;;;;22.10;96716.00;;;;8258946;28;20205;-70
2023/05/02 12:27:24;;;;;;;5.45;4.95;;;;;21.60;96713.00;;;;8256310;28;20202;-70
2023/05/02 12:31:30;;;;;;;5.60;5.10;;;;;21.50;96715.00;;;;8260592;28;20198;-69
2023/05/02 12:35:35;;;;;;;6.65;5.10;;;;;21.80;96713.00;;;;8257949;28;20206;-70
2023/05/02 12:39:41;;;;;;;6.63;4.55;;;;;22.00;96718.00;;;;8256683;28;20281;-69
2023/05/02 12:43:47;;;;;;;6.05;4.95;;;;;22.10;96720.00;;;;8257665;28;20206;-70
2023/05/02 12:47:54;;;;;;;6.85;4.70;;;;;22.30;96711.00;;;;8257295;28;20199;-69
2023/05/02 12:51:59;;;;;;;4.60;4.20;;;;;22.30;96703.00;;;;8255243;28;20281;-71
2023/05/02 12:56:03;;;;;;;3.72;3.42;;;;;22.30;96698.00;;;;8267538;28;20226;-69
2023/05/02 13:00:09;;;;;;;4.43;3.00;;;;;22.60;96707.00;;;;8260731;28;20213;-71
2023/05/02 13:04:14;;;;;;;3.42;3.13;;;;;22.60;96705.00;;;;8261704;28;20325;-69
2023/05/02 13:08:17;;;;;;;3.30;3.10;;;;;22.50;96705.00;;;;8251606;28;20213;-70
2023/05/02 13:12:22;;;;;;;3.67;3.38;;;;;22.80;96709.00;;;;8263584;28;20783;-70
2023/05/02 13:16:25;;;;;;;3.40;3.10;;;;;22.90;96703.00;;;;8263354;28;20244;-69
2023/05/02 13:20:33;;;;;;;3.38;3.15;;;;;22.60;96703.00;;;;8264167;28;20207;-69
2023/05/02 13:24:38;;;;;;;3.53;3.22;;;;;22.50;96706.00;;;;8259068;28;20199;-71
2023/05/02 13:28:41;;;;;;;4.70;3.10;;;;;22.70;96701.00;;;;8264310;28;20233;-70
2023/05/02 13:32:46;;;;;;;3.95;2.70;;;;;22.90;96699.00;;;;8265760;28;20198;-71
2023/05/02 13:36:50;;;;;;;2.90;2.70;;;;;23.30;96701.00;;;;8260196;28;20643;-70
2023/05/02 13:40:55;;;;;;;3.00;2.80;;;;;23.00;96700.00;;;;8262347;28;20207;-69
2023/05/02 13:44:59;;;;;;;2.40;2.30;;;;;23.40;96695.00;;;;8261281;28;20743;-68
2023/05/02 13:49:02;;;;;;;3.13;2.83;;;;;23.40;96698.00;;;;8267585;28;20998;-68
2023/05/02 13:53:10;;;;;;;3.40;2.90;;;;;24.00;96700.00;;;;8261527;28;20218;-68
2023/05/02 13:57:13;;;;;;;2.67;2.47;;;;;24.90;96688.00;;;;8269010;28;20241;-71
2023/05/02 14:01:16;;;;;;;3.25;3.00;;;;;25.30;96698.00;;;;8263756;28;20194;-71
2023/05/02 14:05:22;;;;;;;2.95;2.78;;;;;24.40;96704.00;;;;8254975;28;20223;-68
2023/05/02 14:09:27;;;;;;;4.25;2.92;;;;;23.80;96713.00;;;;8259695;28;20599;-69
2023/05/02 14:13:30;;;;;;;4.95;3.17;;;;;24.00;96702.00;;;;8261379;28;20199;-69
2023/05/02 14:17:33;;;;;;;5.68;2.80;;;;;24.10;96714.00;;;;8267180;28;20788;-68
2023/05/02 14:21:39;;;;;;;2.75;2.65;;;;;23.80;96713.00;;;;8257298;28;20201;-68
2023/05/02 14:25:47;;;;;;;3.17;2.88;;;;;23.60;96709.00;;;;8260509;28;20213;-68
2023/05/02 14:29:53;;;;;;;3.33;3.00;;;;;23.90;96701.00;;;;8257325;28;20634;-69
2023/05/02 14:33:56;;;;;;;4.40;3.03;;;;;24.20;96710.00;;;;8255661;28;20191;-71
2023/05/02 14:38:01;;;;;;;3.90;3.50;;;;;23.80;96708.00;;;;8255395;28;20934;-69
2023/05/02 14:42:07;;;;;;;3.60;3.30;;;;;22.90;96710.00;;;;8256018;28;20217;-69
2023/05/02 14:46:12;;;;;;;3.33;3.03;;;;;22.00;96722.00;;;;8256925;28;20591;-68
2023/05/02 14:50:18;;;;;;;3.42;3.13;;;;;21.50;96725.00;;;;8255852;28;20198;-70
2023/05/02 14:54:29;;;;;;;4.57;3.75;;;;;20.80;96740.00;;;;8255676;28;20196;-68
2023/05/02 14:58:37;;;;;;;3.95;3.50;;;;;19.50;96767.00;;;;8253595;28;20683;-68
2023/05/02 15:02:40;;;;;;;8.32;3.90;;;;;18.60;96765.00;;;;8249176;28;20604;-68
2023/05/02 15:06:44;;;;;;;5.75;3.97;;;;;17.90;96762.00;;;;8255199;28;20755;-69
2023/05/02 15:10:54;;;;;;;8.80;5.00;;;;;17.30;96768.00;;;;8267433;28;20190;-69
2023/05/02 15:14:59;;;;;;;7.30;5.28;;;;;16.70;96766.00;;;;8269281;28;20202;-68
2023/05/02 15:19:04;;;;;;;5.10;4.60;;;;;16.20;96778.00;;;;8272135;28;20582;-67
2023/05/02 15:23:11;;;;;;;6.15;4.90;;;;;15.60;96774.00;;;;8248759;28;20790;-69
2023/05/02 15:27:14;;;;;;;6.88;5.47;;;;;15.00;96771.00;;;;8269361;28;20202;-71
2023/05/02 15:31:19;;;;;;;8.07;5.70;;;;;14.80;96786.00;;;;8256344;28;20210;-71
2023/05/02 15:35:22;;;;;;;12.35;5.13;;;;;14.80;96781.00;;;;8257522;28;20195;-69
2023/05/02 15:39:26;;;;;;;6.95;4.68;;;;;14.90;96784.00;;;;8258117;28;20284;-68
2023/05/02 15:43:32;;;;;;;7.63;4.78;;;;;15.40;96794.00;;;;8257448;28;20713;-67
2023/05/02 15:47:36;;;;;;;4.90;4.07;;;;;15.90;96784.00;;;;8262132;28;20748;-68
2023/05/02 15:51:42;;;;;;;4.38;3.97;;;;;16.30;96789.00;;;;8259784;28;20206;-67
2023/05/02 15:55:48;;;;;;;3.67;3.30;;;;;16.50;96786.00;;;;8259326;28;20213;-67
2023/05/02 15:59:52;;;;;;;3.72;3.30;;;;;16.70;96791.00;;;;8263382;28;20300;-67
2023/05/02 16:03:57;;;;;;;4.55;3.20;;;;;17.10;96793.00;;;;8251913;28;20285;-68
2023/05/02 16:08:00;;;;;;;3.38;3.17;;;;;17.30;96800.00;;;;8258835;28;20215;-67
2023/05/02 16:12:09;;;;;;;3.58;3.28;;;;;17.70;96807.00;;;;8259481;28;20195;-67
2023/05/02 16:16:16;;;;;;;4.65;3.20;;;;;18.20;96810.00;;;;8254668;28;20219;-66
2023/05/02 16:20:22;;;;;;;3.58;3.00;;;;;18.50;96814.00;;;;8249507;28;20696;-67
2023/05/02 16:24:25;;;;;;;2.85;2.65;;;;;18.80;96814.00;;;;8261715;28;20281;-69
2023/05/02 16:28:32;;;;;;;4.95;3.75;;;;;19.20;96824.00;;;;8247835;28;20195;-69
2023/05/02 16:32:36;;;;;;;3.75;3.45;;;;;19.20;96815.00;;;;8243278;28;20246;-68
2023/05/02 16:36:42;;;;;;;4.18;3.22;;;;;19.40;96802.00;;;;8250324;28;20211;-68
2023/05/02 16:40:45;;;;;;;5.88;3.42;;;;;19.30;96807.00;;;;8247267;28;20231;-69
2023/05/02 16:44:48;;;;;;;3.55;3.25;;;;;19.40;96809.00;;;;8245251;28;20289;-69
2023/05/02 16:48:56;;;;;;;3.75;3.17;;;;;19.70;96809.00;;;;8254134;28;20205;-69
2023/05/02 16:53:00;;;;;;;3.78;3.47;;;;;19.20;96808.00;;;;8252227;28;20205;-69
2023/05/02 16:57:06;;;;;;;3.92;3.17;;;;;18.60;96807.00;;;;8261058;28;20725;-69
2023/05/02 17:01:09;;;;;;;4.20;3.47;;;;;18.50;96809.00;;;;8250164;28;20226;-69
2023/05/02 17:05:12;;;;;;;3.38;3.10;;;;;19.00;96816.00;;;;8265516;28;20222;-69
2023/05/02 17:09:19;;;;;;;4.95;3.33;;;;;19.30;96820.00;;;;8252934;28;20293;-69
2023/05/02 17:13:30;;;;;;;3.40;3.10;;;;;19.70;96817.00;;;;8254620;28;20199;-70
2023/05/02 17:17:35;;;;;;;3.40;3.05;;;;;19.90;96824.00;;;;8246563;28;20210;-70
2023/05/02 17:21:39;;;;;;;4.63;3.33;;;;;20.00;96815.00;;;;8250262;28;20198;-69
2023/05/02 17:25:45;;;;;;;3.08;2.88;;;;;20.00;96821.00;;;;8251724;28;20564;-70
2023/05/02 17:29:49;;;;;;;3.92;3.33;;;;;20.20;96830.00;;;;8247692;28;20289;-69
2023/05/02 17:33:55;;;;;;;4.88;2.72;;;;;20.30;96824.00;;;;8245199;28;20199;-69
2023/05/02 17:38:06;;;;;;;3.95;3.20;;;;;20.00;96834.00;;;;8242998;28;20277;-69
2023/05/02 17:42:11;;;;;;;4.70;3.08;;;;;19.30;96835.00;;;;8250849;28;20229;-69
2023/05/02 17:46:17;;;;;;;3.38;3.00;;;;;18.50;96835.00;;;;8247813;28;21055;-70
2023/05/02 17:50:20;;;;;;;5.00;3.10;;;;;17.80;96844.00;;;;8251207;28;20203;-68
2023/05/02 17:54:24;;;;;;;4.03;3.00;;;;;17.30;96843.00;;;;8246453;28;20657;-69
2023/05/02 17:58:30;;;;;;;5.93;2.70;;;;;16.90;96849.00;;;;8251479;28;20250;-68
2023/05/02 18:02:36;;;;;;;4.43;2.90;;;;;16.50;96855.00;;;;8252506;28;20312;-69
2023/05/02 18:06:45;;;;;;;2.63;2.50;;;;;16.10;96857.00;;;;8245310;28;20206;-68
2023/05/02 18:10:50;;;;;;;3.03;2.50;;;;;15.80;96856.00;;;;8246406;28;20206;-67
2023/05/02 18:14:57;;;;;;;3.17;2.88;;;;;15.40;96866.00;;;;8249112;28;20231;-69
2023/05/02 18:19:04;;;;;;;5.90;3.40;;;;;15.10;96869.00;;;;8251268;28;20253;-67
2023/05/02 18:23:09;;;;;;;5.45;4.50;;;;;14.70;96874.00;;;;8249139;28;20282;-67
2023/05/02 18:27:12;;;;;;;7.82;6.32;;;;;14.40;96875.00;;;;8247109;28;20273;-67
2023/05/02 18:31:17;;;;;;;5.85;5.18;;;;;14.00;96881.00;;;;8249684;28;20195;-68
2023/05/02 18:35:21;;;;;;;5.28;4.55;;;;;13.60;96878.00;;;;8250609;28;20226;-67
2023/05/02 18:39:24;;;;;;;6.72;5.10;;;;;13.30;96888.00;;;;8250061;28;20636;-69
2023/05/02 18:43:29;;;;;;;8.60;4.55;;;;;12.90;96896.00;;;;8256090;28;20881;-69
2023/05/02 18:47:36;;;;;;;7.22;5.75;;;;;12.70;96904.00;;;;8259853;28;20205;-69
2023/05/02 18:51:41;;;;;;;11.18;6.25;;;;;12.40;96910.00;;;;8258591;28;20209;-72
2023/05/02 18:55:45;;;;;;;11.30;8.60;;;;;12.20;96911.00;;;;8259482;28;20202;-68
2023/05/02 18:59:49;;;;;;;15.95;10.38;;;;;12.00;96922.00;;;;8256247;28;20282;-68
2023/05/02 19:03:59;;;;;;;11.95;7.90;;;;;11.80;96920.00;;;;8252834;28;20241;-67
2023/05/02 19:08:04;;;;;;;9.95;6.53;;;;;11.60;96931.00;;;;8233020;28;20225;-68
2023/05/02 19:12:08;;;;;;;7.60;5.03;;;;;11.50;96934.00;;;;8240008;28;20238;-67
2023/05/02 19:16:14;;;;;;;5.32;4.82;;;;;11.50;96936.00;;;;8238144;28;20201;-67
2023/05/02 19:20:24;;;;;;;5.00;4.50;;;;;11.50;96937.00;;;;8248978;28;20832;-66
2023/05/02 19:24:28;;;;;;;7.15;4.53;;;;;11.60;96943.00;;;;8248375;28;20202;-67
2023/05/02 19:28:36;;;;;;;11.80;4.18;;;;;11.80;96952.00;;;;8250273;28;20957;-66
2023/05/02 19:32:42;;;;;;;4.30;3.90;;;;;12.00;96954.00;;;;8255560;28;20274;-66
2023/05/02 19:36:46;;;;;;;5.63;4.18;;;;;12.20;96964.00;;;;8257745;28;20197;-67
2023/05/02 19:40:52;;;;;;;10.20;4.28;;;;;12.30;96976.00;;;;8268652;28;20228;-69
2023/05/02 19:44:55;;;;;;;5.72;4.45;;;;;12.40;96976.00;;;;8274485;28;21100;-68
2023/05/02 19:48:59;;;;;;;6.80;4.15;;;;;12.50;96985.00;;;;8254470;28;20210;-68
2023/05/02 19:53:07;;;;;;;6.65;4.82;;;;;12.50;96986.00;;;;8258220;28;20213;-68
2023/05/02 19:57:12;;;;;;;5.25;4.53;;;;;12.50;96996.00;;;;8263546;28;20833;-69
2023/05/02 20:01:16;;;;;;;5.10;4.60;;;;;12.50;96989.00;;;;8272744;28;20229;-66
2023/05/02 20:05:19;;;;;;;5.95;4.68;;;;;12.60;97001.00;;;;8269711;28;20224;-69
2023/05/02 20:09:26;;;;;;;8.15;4.93;;;;;12.60;97004.00;;;;8263766;28;20216;-68
2023/05/02 20:13:36;;;;;;;8.07;5.15;;;;;12.60;96991.00;;;;8254351;28;20284;-68
2023/05/02 20:17:40;;;;;;;7.20;5.13;;;;;12.60;97003.00;;;;8253266;28;20205;-68
2023/05/02 20:21:43;;;;;;;7.32;5.55;;;;;12.60;96996.00;;;;8249134;28;20235;-67